Station: Mount Lofty

  Atmospheric Gas Attenuation - ITU Rec 676-11   --------------- db/100km ---------------
Date Time Temp RH % AH g/m3 Dew Point Wind Direction Speed kph Gust kph Barometer mB Rainfall Since 9am 24GHz 47GHz 76GHz 122GHz 134GHz 241GHz
17 02:40 9.1 76 6.75 5.1 7 9 1013.1 0 15.8 24.2 34.6 90.5 79.4 271.3
17 02:30 9 77 6.79 5.2 9 17 1013.1 0 15.9 24.3 34.8 91.0 80.0 273.5
17 02:20 8.8 79 6.88 5.3 7 13 1013.1 0 16.1 24.5 35.2 92.2 81.4 278.4
17 02:10 8.6 81 6.96 5.5 7 11 1013.1 0 16.3 24.7 35.7 93.3 82.7 282.8
17 02:00 8.7 82 7.09 5.8 7 13 1013.1 0 16.6 24.9 36.1 94.6 84.3 288.5
17 01:50 8.4 82 6.96 5.6 6 6 1013.1 0 16.3 24.8 35.7 93.6 82.9 283.5
17 01:40 8.5 84 7.17 5.9 6 11 1013.1 0 16.8 25.1 36.6 95.7 85.6 293.0
17 01:30 8.6 85 7.31 6.2 7 17 1013.1 0 17.1 25.3 37.1 97.1 87.4 299.3
17 01:20 8.3 86 7.25 6.1 7 11 1013.1 0 16.9 25.3 37.0 96.9 86.9 297.6
17 01:10 8.3 86 7.25 6.1 9 13 1013.1 0 16.9 25.3 37.0 96.9 86.9 297.6
17 01:00 8.6 85 7.31 6.2 11 15 1013.1 0 17.1 25.3 37.1 97.1 87.4 299.3
17 00:50 8.5 85 7.26 6.1 9 11 1013.1 0 17.0 25.2 36.9 96.7 86.8 297.3
17 00:40 8.6 85 7.31 6.2 6 9 1013.1 0 17.1 25.3 37.1 97.1 87.4 299.3
17 00:30 8.6 85 7.31 6.2 7 13 1013.1 0 17.1 25.3 37.1 97.1 87.4 299.3
17 00:20 8.6 85 7.31 6.2 9 13 1013.1 0 17.1 25.3 37.1 97.1 87.4 299.3
17 00:10 8.7 85 7.35 6.3 6 7 1013.1 0 17.1 25.3 37.2 97.5 87.8 300.8
17 00:00 8.6 83 7.13 5.9 6 13 1013.1 0 16.7 25.0 36.3 95.2 85.0 290.8
16 23:50 8.7 81 7.01 5.6 6 7 1013.1 0 16.4 24.8 35.8 93.8 83.3 284.8
16 23:40 9 80 7.06 5.7 7 9 1013.1 0 16.5 24.8 35.9 93.9 83.6 286.0
16 23:30 8.9 82 7.19 6 7 11 1013.1 0 16.8 25.0 36.4 95.5 85.4 292.5
16 23:20 9 82 7.23 6.2 7 9 1013.1 0 16.9 25.0 36.6 95.8 85.9 294.0
16 23:10 8.6 86 7.39 6.4 9 13 1013.1 0 17.2 25.4 37.4 98.0 88.5 303.1
16 23:00 8.3 88 7.42 6.4 6 13 1013.1 0 17.3 25.5 37.7 98.7 89.2 305.7
16 22:50 8 90 7.44 6.4 6 7 1013.1 0 17.4 25.7 37.9 99.3 89.9 307.8
16 22:40 7.8 91 7.43 6.4 7 9 1013.1 0 17.4 25.7 38.0 99.5 90.0 308.1
16 22:30 8 91 7.53 6.6 6 11 1013.1 0 17.6 25.8 38.3 100.3 91.1 312.1
16 22:20 7.7 91 7.38 6.4 6 9 1013.1 0 17.3 25.6 37.8 99.0 89.4 306.1
16 22:10 7.9 91 7.48 6.6 6 7 1013.1 0 17.5 25.8 38.1 99.9 90.5 310.1
16 22:00 7.8 93 7.59 6.7 6 13 1013.1 0 17.7 26.0 38.6 101.3 92.2 315.8
16 21:50 8 90 7.44 6.4 6 7 1013.1 0 17.4 25.7 37.9 99.3 89.9 307.8
16 21:40 8.4 89 7.55 6.7 7 9 1013.1 0 17.6 25.7 38.2 100.0 90.9 311.5
16 21:30 8.3 91 7.67 6.9 6 11 1013.1 0 17.8 26.0 38.7 101.5 92.7 317.6
16 21:20 8.1 95 7.91 7.3 4 4 1013.1 0 18.4 26.4 39.8 104.5 96.2 330.1
16 21:10 8.1 98 8.16 7.8 4 7 1013.1 0 18.9 26.9 40.9 107.3 99.7 342.4
16 21:00 7.3 98 7.75 7 4 7 1013.1 0 18.1 26.4 39.5 103.7 95.0 325.7
16 20:50 6.9 98 7.55 6.6 2 4 1013.1 0 17.7 26.2 38.9 102.0 92.7 317.5
16 20:40 6.9 98 7.55 6.6 2 4 1013.1 0 17.7 26.2 38.9 102.0 92.7 317.5
16 20:30 6.8 97 7.42 6.4 4 4 1013.1 0 17.4 26.0 38.4 100.6 91.0 311.6
16 20:20 6.8 97 7.42 6.3 4 4 1013.1 0 17.4 26.0 38.4 100.6 91.0 311.6
16 20:10 6.8 97 7.42 6.3 4 6 1013.1 0 17.4 26.0 38.4 100.6 91.0 311.6
16 20:00 7 97 7.52 6.6 4 6 1013.1 0 17.6 26.1 38.7 101.5 92.1 315.7
16 19:50 7 97 7.52 6.5 4 6 1013.1 0 17.6 26.1 38.7 101.5 92.1 315.7
16 19:40 7.1 97 7.57 6.6 4 6 1013.1 0 17.7 26.1 38.9 101.9 92.7 317.7
16 19:30 7.1 97 7.57 6.7 4 6 1013.1 0 17.7 26.1 38.9 101.9 92.7 317.7
16 19:20 7.1 96 7.49 6.5 4 4 1013.1 0 17.5 26.0 38.5 101.0 91.6 313.8
16 19:10 7.2 96 7.54 6.6 6 6 1013.1 0 17.6 26.1 38.7 101.5 92.2 315.8
16 19:00 7.3 96 7.59 6.7 4 7 1013.1 0 17.7 26.1 38.9 101.9 92.8 317.9
16 18:50 7.5 96 7.69 6.9 6 7 1013.1 0 17.9 26.2 39.2 102.8 93.9 321.9
16 18:40 7.5 95 7.61 6.7 6 7 1013.1 0 17.8 26.1 38.9 101.9 92.8 318.0
16 18:30 7.7 94 7.63 6.8 6 7 1013.1 0 17.8 26.1 38.8 101.8 92.8 318.2
16 18:20 7.8 94 7.67 6.9 6 7 1013.1 0 17.9 26.1 39.0 102.2 93.3 319.7
16 18:10 8 93 7.69 6.9 6 6 1013.1 0 17.9 26.1 38.9 102.1 93.3 319.8
16 18:00 8.2 93 7.79 7.1 6 11 1013.1 0 18.1 26.2 39.3 103.0 94.4 323.9
16 17:50 8.4 91 7.72 7 6 7 1013.1 0 18.0 26.0 38.9 101.9 93.2 319.6
16 17:40 8.5 89 7.6 6.8 6 7 1013.1 0 17.7 25.8 38.3 100.5 91.5 313.5
16 17:30 8.9 88 7.71 7 4 6 1013.1 0 17.9 25.9 38.6 101.2 92.5 317.1
16 17:20 9.2 85 7.59 6.8 6 6 1013.1 0 17.6 25.6 37.9 99.5 90.5 310.2
16 17:10 9.8 81 7.52 6.8 0 0 1013.1 0 17.5 25.3 37.4 97.9 88.9 304.5
16 17:00 10.1 79 7.47 6.6 0 0 1013.1 0 17.3 25.1 37.0 97.0 87.8 301.0
16 16:50 11.2 76 7.7 7.1 0 0 1013.1 0 17.8 25.2 37.4 98.1 89.6 307.5
16 16:40 11.6 76 7.9 7.5 0 0 1013.1 0 18.2 25.4 38.1 99.8 91.8 315.2
16 16:30 11.7 73 7.64 7 0 0 1013.1 0 17.6 24.9 37.0 96.9 88.3 302.8
16 16:20 12.4 74 8.09 7.9 0 0 1013.1 0 18.6 25.5 38.4 100.8 93.4 320.7
16 16:10 12.6 68 7.52 7 0 0 1013.1 0 17.3 24.5 36.1 94.5 85.7 293.9
16 16:00 12.8 71 7.95 7.7 0 2 1013.1 0 18.2 25.1 37.7 98.8 91.1 312.7
16 15:50 12.5 69 7.59 7.1 2 2 1013.1 0 17.5 24.6 36.4 95.4 86.7 297.4
16 15:40 12 70 7.46 6.7 4 4 1013.1 0 17.2 24.6 36.1 94.6 85.6 293.4
16 15:30 12.9 68 7.66 7.1 0 0 1013.1 0 17.6 24.6 36.5 95.6 87.2 299.1
16 15:20 13.6 65 7.65 7.3 0 0 1013.1 0 17.6 24.4 36.1 94.7 86.3 296.0
16 15:10 13.2 68 7.81 7.4 2 2 1013.1 0 17.9 24.8 36.9 96.8 88.8 304.7
16 15:00 13 71 8.05 7.9 2 6 1013.1 0 18.5 25.2 38.0 99.6 92.1 316.5
16 14:50 12.9 74 8.34 8.5 2 4 1013.1 0 19.1 25.7 39.2 102.8 96.1 330.2
16 14:40 12 73 7.78 7.3 6 7 1013.1 0 17.9 25.1 37.4 98.0 89.8 308.0
16 14:30 12 74 7.89 7.5 6 9 1013.1 0 18.2 25.3 37.8 99.2 91.2 313.1
16 14:20 12.6 74 8.19 8.1 4 6 1013.1 0 18.8 25.6 38.7 101.6 94.5 324.5
16 14:10 12.6 76 8.41 8.6 0 0 1013.1 0 19.2 25.9 39.6 104.0 97.4 334.8
16 14:00 12.2 74 7.99 7.7 2 7 1013.1 0 18.4 25.4 38.1 100.0 92.3 316.9
16 13:50 12.4 72 7.87 7.5 4 6 1013.1 0 18.1 25.1 37.6 98.4 90.5 310.6
16 13:40 12.4 71 7.76 7.3 4 6 1013.1 0 17.9 24.9 37.1 97.3 89.0 305.6
16 13:30 12.5 71 7.81 7.4 2 6 1013.1 0 18.0 25.0 37.3 97.7 89.6 307.5
16 13:20 12.4 68 7.43 6.8 0 2 1013.1 0 17.2 24.4 35.8 93.8 84.8 290.6
16 13:10 12.3 70 7.6 7 2 4 1013.1 0 17.5 24.7 36.5 95.7 87.1 298.6
16 13:00 12.3 72 7.82 7.4 4 7 1013.1 0 18.0 25.1 37.4 98.0 89.9 308.7
16 12:50 11.9 76 8.05 7.8 6 9 1013.1 0 18.5 25.5 38.5 101.0 93.5 320.9
16 12:40 11.4 73 7.49 6.7 4 7 1013.1 0 17.3 24.8 36.5 95.6 86.6 297.0
16 12:30 12.4 80 8.74 9.1 4 7 1013.1 0 20.0 26.5 41.1 107.8 102.1 351.2
16 12:20 11.3 81 8.26 8.1 4 7 1013.1 0 19.0 26.1 39.7 104.1 97.0 333.3
16 12:10 10.6 82 8.01 7.6 2 4 1013.1 0 18.5 25.9 39.0 102.3 94.5 324.4
16 12:00 9.9 84 7.85 7.3 7 13 1013.1 0 18.2 25.8 38.7 101.4 93.2 319.7
16 11:50 10.3 80 7.66 7.1 7 13 1013.1 0 17.7 25.4 37.7 98.8 90.1 309.1
16 11:40 11.6 84 8.73 9 6 6 1013.1 0 20.0 26.8 41.5 108.8 103.0 354.3
16 11:30 10.7 86 8.45 8.5 6 11 1013.1 0 19.4 26.6 40.8 107.0 100.4 344.9
16 11:20 10.3 88 8.43 8.4 4 6 1013.1 0 19.4 26.6 40.9 107.3 100.6 345.7
16 11:10 9.3 88 7.91 7.5 9 9 1013.1 0 18.3 26.1 39.2 102.9 94.7 325.1
16 11:00 9.3 91 8.18 7.9 7 11 1013.1 0 18.9 26.5 40.3 105.9 98.5 338.1
16 10:50 9.2 93 8.31 8.1 4 6 1013.1 0 19.2 26.8 40.9 107.5 100.4 344.8
16 10:40 8.6 93 7.99 7.5 9 13 1013.1 0 18.5 26.4 39.9 104.7 96.7 331.9
16 10:30 8.6 92 7.91 7.4 7 13 1013.1 0 18.4 26.3 39.6 103.8 95.6 328.0
16 10:20 8.7 93 8.05 7.6 11 13 1013.1 0 18.7 26.5 40.1 105.2 97.4 334.4
16 10:10 9.1 91 8.08 7.7 7 11 1013.1 0 18.7 26.4 40.0 105.0 97.3 334.1

Last Refresh: 17-Jul-2020 02:58:16

Most of the information presented on this site is sourced from the Bureau of Meteorology.  Copyright in all material sourced from the Bureau of Meteorology resides with the Commonwealth of Australia.